createdAt,value
2023-04-01T00:02:31.404Z,98276.34
2023-04-01T00:05:18.545Z,98287.59
2023-04-01T00:08:05.104Z,98308.41
2023-04-01T00:10:52.730Z,98302.25
2023-04-01T00:13:39.890Z,98299.63
2023-04-01T00:16:27.175Z,98294.84
2023-04-01T00:19:14.034Z,98296.44
2023-04-01T00:22:01.504Z,98296.00
2023-04-01T00:24:48.132Z,98291.75
2023-04-01T00:27:35.362Z,98287.88
2023-04-01T00:30:21.962Z,98289.00
2023-04-01T00:33:09.365Z,98285.84
2023-04-01T00:35:55.805Z,98287.69
2023-04-01T00:38:43.936Z,98286.91
2023-04-01T00:41:30.780Z,98295.63
2023-04-01T00:44:19.496Z,98292.91
2023-04-01T00:47:06.898Z,98287.78
2023-04-01T00:49:55.601Z,98276.28
2023-04-01T00:52:42.445Z,98276.28
2023-04-01T00:55:30.903Z,98275.84
2023-04-01T00:58:20.261Z,98282.22
2023-04-01T01:01:07.837Z,98257.47
2023-04-01T01:03:54.519Z,98276.22
2023-04-01T01:06:49.469Z,98278.59
2023-04-01T01:09:48.704Z,98275.66
2023-04-01T01:12:54.394Z,98274.75
2023-04-01T01:15:57.417Z,98276.69
2023-04-01T01:19:40.234Z,98275.56
2023-04-01T01:22:40.534Z,98266.09
2023-04-01T01:25:45.920Z,98271.56
2023-04-01T01:29:09.670Z,98273.97
2023-04-01T01:32:14.567Z,98277.16
2023-04-01T01:35:26.280Z,98276.47
2023-04-01T01:38:19.747Z,98265.78
2023-04-01T01:41:15.752Z,98276.53
2023-04-01T01:44:04.800Z,98271.44
2023-04-01T01:46:51.990Z,98271.56
2023-04-01T01:49:40.897Z,98245.22
2023-04-01T01:52:29.486Z,98273.97
2023-04-01T01:55:46.751Z,98271.47
2023-04-01T01:58:41.450Z,98275.44
2023-04-01T02:01:33.670Z,98272.81
2023-04-01T02:04:29.850Z,98274.31
2023-04-01T02:07:23.991Z,98251.69
2023-04-01T02:10:10.370Z,98273.16
2023-04-01T02:13:01.157Z,98274.88
2023-04-01T02:15:48.852Z,98269.97
2023-04-01T02:18:38.928Z,98274.09
2023-04-01T02:21:29.418Z,98264.31
2023-04-01T02:24:17.209Z,98253.88
2023-04-01T02:27:04.854Z,98266.97
2023-04-01T02:29:52.768Z,98266.59
2023-04-01T02:32:40.340Z,98268.19
2023-04-01T02:35:28.335Z,98265.00
2023-04-01T02:38:17.006Z,98264.22
2023-04-01T02:41:06.527Z,98272.75
2023-04-01T02:43:53.088Z,98268.44
2023-04-01T02:46:40.994Z,98277.53
2023-04-01T02:49:28.418Z,98268.53
2023-04-01T02:52:15.837Z,98277.53
2023-04-01T02:55:02.866Z,98279.81
2023-04-01T02:57:52.146Z,98275.25
2023-04-01T03:00:39.551Z,98283.09
2023-04-01T03:03:28.250Z,98280.69
2023-04-01T03:06:16.700Z,98281.84
2023-04-01T03:09:04.602Z,98277.06
2023-04-01T03:11:52.110Z,98275.81
2023-04-01T03:14:40.897Z,98285.28
2023-04-01T03:17:27.122Z,98282.53
2023-04-01T03:20:16.532Z,98275.47
2023-04-01T03:23:03.396Z,98273.09
2023-04-01T03:25:52.099Z,98264.81
2023-04-01T03:28:41.158Z,98280.69
2023-04-01T03:31:28.241Z,98279.81
2023-04-01T03:34:18.018Z,98279.69
2023-04-01T03:37:05.723Z,98280.13
2023-04-01T03:39:53.388Z,98272.31
2023-04-01T03:42:40.183Z,98287.66
2023-04-01T03:45:26.957Z,98295.50
2023-04-01T03:48:16.287Z,98287.66
2023-04-01T03:51:08.204Z,98292.31
2023-04-01T03:53:55.608Z,98291.53
2023-04-01T03:56:42.041Z,98292.22
2023-04-01T03:59:29.216Z,98298.47
2023-04-01T04:02:15.597Z,98292.13
2023-04-01T04:05:04.956Z,98303.94
2023-04-01T04:07:53.567Z,98309.84
2023-04-01T04:10:39.764Z,98319.19
2023-04-01T04:13:26.255Z,98312.59
2023-04-01T04:16:19.667Z,98318.50
2023-04-01T04:19:11.962Z,98312.47
2023-04-01T04:21:58.691Z,98320.34
2023-04-01T04:24:44.897Z,98313.16
2023-04-01T04:27:33.041Z,98295.56
2023-04-01T04:30:26.707Z,98318.63
2023-04-01T04:33:13.405Z,98294.41
2023-04-01T04:36:00.761Z,98321.03
2023-04-01T04:38:48.134Z,98317.38
2023-04-01T04:41:36.550Z,98306.00
2023-04-01T04:44:24.454Z,98323.19
2023-04-01T04:47:11.404Z,98331.50
2023-04-01T04:49:58.136Z,98330.44
2023-04-01T04:52:44.620Z,98328.63
2023-04-01T04:55:31.873Z,98316.72
2023-04-01T04:58:37.516Z,98337.06
2023-04-01T05:01:25.159Z,98341.28
2023-04-01T05:04:11.596Z,98304.66
2023-04-01T05:06:58.071Z,98338.19
2023-04-01T05:09:44.321Z,98344.91
2023-04-01T05:12:30.842Z,98339.34
2023-04-01T05:15:22.380Z,98349.94
2023-04-01T05:18:09.248Z,98304.84
2023-04-01T05:20:55.963Z,98349.38
2023-04-01T05:23:42.463Z,98345.69
2023-04-01T05:26:28.752Z,98322.88
2023-04-01T05:29:15.538Z,98350.38
2023-04-01T05:32:03.064Z,98349.25
2023-04-01T05:34:52.207Z,98350.59
2023-04-01T05:37:39.057Z,98356.97
2023-04-01T05:40:25.584Z,98344.44
2023-04-01T05:43:12.049Z,98357.19
2023-04-01T05:45:59.050Z,98340.56
2023-04-01T05:49:07.139Z,98356.84
2023-04-01T05:51:53.961Z,98364.34
2023-04-01T05:54:40.286Z,98354.19
2023-04-01T05:57:27.404Z,98364.91
2023-04-01T06:00:14.350Z,98359.34
2023-04-01T06:03:01.370Z,98348.31
2023-04-01T06:05:47.484Z,98365.38
2023-04-01T06:08:33.938Z,98372.44
2023-04-01T06:11:31.961Z,98374.25
2023-04-01T06:14:37.992Z,98382.13
2023-04-01T06:17:47.271Z,98383.59
2023-04-01T06:20:56.395Z,98360.84
2023-04-01T06:24:14.116Z,98382.91
2023-04-01T06:27:12.893Z,98384.84
2023-04-01T06:30:30.112Z,98391.09
2023-04-01T06:33:27.259Z,98384.50
2023-04-01T06:36:22.258Z,98383.97
2023-04-01T06:39:26.482Z,98392.38
2023-04-01T06:42:18.731Z,98390.88
2023-04-01T06:45:12.017Z,98396.78
2023-04-01T06:48:32.885Z,98395.66
2023-04-01T06:51:54.388Z,98402.38
2023-04-01T06:55:13.794Z,98394.41
2023-04-01T06:58:28.845Z,98398.06
2023-04-01T07:01:19.792Z,98403.59
2023-04-01T07:04:29.049Z,98406.47
2023-04-01T07:07:23.345Z,98418.75
2023-04-01T07:10:21.230Z,98420.34
2023-04-01T07:13:31.042Z,98419.78
2023-04-01T07:16:25.788Z,98429.38
2023-04-01T07:19:36.194Z,98435.16
2023-04-01T07:22:36.465Z,98407.00
2023-04-01T07:25:45.669Z,98434.97
2023-04-01T07:28:54.195Z,98443.75
2023-04-01T07:32:11.422Z,98434.41
2023-04-01T07:35:28.773Z,98444.06
2023-04-01T07:38:31.585Z,98411.72
2023-04-01T07:41:28.431Z,98447.91
2023-04-01T07:44:27.779Z,98439.94
2023-04-01T07:47:37.277Z,98458.16
2023-04-01T07:50:29.508Z,98457.38
2023-04-01T07:53:35.724Z,98466.59
2023-04-01T07:56:29.162Z,98461.34
2023-04-01T07:59:54.618Z,98470.09
2023-04-01T08:02:59.260Z,98477.38
2023-04-01T08:05:55.404Z,98481.22
2023-04-01T08:08:54.027Z,98473.13
2023-04-01T08:12:17.026Z,98465.09
2023-04-01T08:15:28.368Z,98487.88
2023-04-01T08:18:48.335Z,98505.84
2023-04-01T08:21:41.401Z,98506.06
2023-04-01T08:24:44.349Z,98512.84
2023-04-01T08:27:47.606Z,98516.25
2023-04-01T08:30:44.605Z,98505.09
2023-04-01T08:33:33.529Z,98519.03
2023-04-01T08:36:34.345Z,98517.31
2023-04-01T08:39:39.930Z,98529.03
2023-04-01T08:42:52.331Z,98531.44
2023-04-01T08:46:09.639Z,98534.34
2023-04-01T08:49:38.352Z,98540.31
2023-04-01T08:52:35.736Z,98538.06
2023-04-01T08:55:32.111Z,98542.84
2023-04-01T08:58:35.097Z,98547.19
2023-04-01T09:01:47.999Z,98555.72
2023-04-01T09:05:32.069Z,98547.09
2023-04-01T09:08:31.062Z,98558.91
2023-04-01T09:11:35.037Z,98565.13
2023-04-01T09:15:16.418Z,98565.28
2023-04-01T09:18:21.931Z,98567.34
2023-04-01T09:21:13.058Z,98571.53
2023-04-01T09:24:30.713Z,98570.53
2023-04-01T09:27:35.452Z,98583.06
2023-04-01T09:30:36.218Z,98599.94
2023-04-01T09:33:44.927Z,98591.94
2023-04-01T09:36:50.472Z,98594.00
2023-04-01T09:39:39.586Z,98598.03
2023-04-01T09:42:46.781Z,98591.44
2023-04-01T09:45:54.183Z,98591.91
2023-04-01T09:49:10.846Z,98573.09
2023-04-01T09:52:32.154Z,98605.72
2023-04-01T09:55:53.640Z,98585.78
2023-04-01T09:59:24.546Z,98610.91
2023-04-01T10:02:54.973Z,98624.53
2023-04-01T10:06:14.845Z,98624.19
2023-04-01T10:09:22.848Z,98637.06
2023-04-01T10:12:17.716Z,98580.31
2023-04-01T10:15:29.399Z,98635.47
2023-04-01T10:18:49.232Z,98643.75
2023-04-01T10:21:49.141Z,98641.38
2023-04-01T10:24:53.758Z,98638.78
2023-04-01T10:27:48.478Z,98646.78
2023-04-01T10:31:22.388Z,98652.38
2023-04-01T10:34:21.496Z,98653.50
2023-04-01T10:37:42.685Z,98657.50
2023-04-01T10:41:10.586Z,98662.75
2023-04-01T10:44:24.184Z,98634.63
2023-04-01T10:47:37.505Z,98619.31
2023-04-01T10:50:32.517Z,98605.53
2023-04-01T10:53:42.153Z,98665.66
2023-04-01T10:57:16.657Z,98661.53
2023-04-01T11:00:33.794Z,98673.06
2023-04-01T11:04:04.212Z,98671.94
2023-04-01T11:07:16.816Z,98663.59
2023-04-01T11:10:09.540Z,98680.72
2023-04-01T11:13:04.688Z,98676.41
2023-04-01T11:15:51.162Z,98685.44
2023-04-01T11:19:29.078Z,98688.69
2023-04-01T11:22:26.323Z,98685.50
2023-04-01T11:25:50.885Z,98664.13
2023-04-01T11:29:27.395Z,98642.38
2023-04-01T11:32:39.130Z,98693.44
2023-04-01T11:35:40.587Z,98706.50
2023-04-01T11:38:45.246Z,98722.22
2023-04-01T11:42:06.513Z,98726.59
2023-04-01T11:45:41.366Z,98659.84
2023-04-01T11:49:18.243Z,98667.84
2023-04-01T11:52:16.761Z,98685.59
2023-04-01T11:55:22.009Z,98725.47
2023-04-01T11:58:28.851Z,98732.38
2023-04-01T12:01:40.436Z,98719.25
2023-04-01T12:04:28.739Z,98741.00
2023-04-01T12:07:46.682Z,98741.31
2023-04-01T12:11:04.910Z,98748.38
2023-04-01T12:13:57.246Z,98744.66
2023-04-01T12:16:47.112Z,98696.97
2023-04-01T12:19:44.855Z,98741.63
2023-04-01T12:22:57.828Z,98739.56
2023-04-01T12:25:56.140Z,98754.91
2023-04-01T12:29:07.944Z,98753.25
2023-04-01T12:32:21.593Z,98763.84
2023-04-01T12:35:18.448Z,98703.66
2023-04-01T12:38:20.422Z,98762.72
2023-04-01T12:41:10.644Z,98782.09
2023-04-01T12:44:10.174Z,98748.16
2023-04-01T12:47:09.690Z,98787.75
2023-04-01T12:50:43.511Z,98793.56
2023-04-01T12:53:41.679Z,98790.84
2023-04-01T12:56:33.814Z,98764.94
2023-04-01T12:59:31.976Z,98797.63
2023-04-01T13:02:26.782Z,98800.97
2023-04-01T13:05:27.898Z,98796.47
2023-04-01T13:08:17.737Z,98773.75
2023-04-01T13:11:40.617Z,98809.63
2023-04-01T13:14:46.436Z,98808.50
2023-04-01T13:17:48.905Z,98821.47
2023-04-01T13:20:40.008Z,98822.94
2023-04-01T13:23:45.065Z,98830.34
2023-04-01T13:26:52.216Z,98830.50
2023-04-01T13:29:42.327Z,98829.56
2023-04-01T13:32:48.931Z,98830.69
2023-04-01T13:35:50.161Z,98831.00
2023-04-01T13:38:56.471Z,98832.94
2023-04-01T13:41:55.670Z,98840.66
2023-04-01T13:45:15.515Z,98839.19
2023-04-01T13:48:26.029Z,98838.72
2023-04-01T13:51:17.276Z,98845.63
2023-04-01T13:54:14.564Z,98823.34
2023-04-01T13:57:20.948Z,98843.84
2023-04-01T14:00:39.891Z,98856.19
2023-04-01T14:03:38.290Z,98856.53
2023-04-01T14:06:27.922Z,98860.69
2023-04-01T14:09:22.760Z,98858.94
2023-04-01T14:12:29.018Z,98864.06
2023-04-01T14:15:40.426Z,98863.75
2023-04-01T14:18:32.214Z,98862.47
2023-04-01T14:21:23.670Z,98865.34
2023-04-01T14:24:24.160Z,98872.25
2023-04-01T14:27:29.356Z,98869.84
2023-04-01T14:30:34.070Z,98876.59
2023-04-01T14:34:07.913Z,98845.97
2023-04-01T14:36:54.295Z,98880.25
2023-04-01T14:40:18.465Z,98889.91
2023-04-01T14:43:07.193Z,98886.84
2023-04-01T14:46:14.622Z,98882.38
2023-04-01T14:49:03.861Z,98890.88
2023-04-01T14:51:51.115Z,98900.78
2023-04-01T14:54:39.253Z,98907.06
2023-04-01T14:57:32.210Z,98897.59
2023-04-01T15:00:19.430Z,98902.38
2023-04-01T15:03:23.737Z,98918.28
2023-04-01T15:06:33.392Z,98918.28
2023-04-01T15:09:33.566Z,98917.47
2023-04-01T15:12:22.945Z,98916.81
2023-04-01T15:15:48.920Z,98918.59
2023-04-01T15:18:47.935Z,98884.91
2023-04-01T15:21:51.351Z,98910.59
2023-04-01T15:25:04.910Z,98921.50
2023-04-01T15:28:16.992Z,98927.88
2023-04-01T15:31:16.906Z,98936.69
2023-04-01T15:34:36.907Z,98941.97
2023-04-01T15:37:49.175Z,98918.41
2023-04-01T15:40:57.330Z,98919.97
2023-04-01T15:43:46.834Z,98947.59
2023-04-01T15:46:47.932Z,98954.00
2023-04-01T15:49:34.040Z,98968.56
2023-04-01T15:52:35.177Z,98965.34
2023-04-01T15:55:50.438Z,98973.53
2023-04-01T15:58:51.726Z,98984.13
2023-04-01T16:02:19.922Z,98981.69
2023-04-01T16:05:11.368Z,98955.19
2023-04-01T16:08:08.571Z,98984.13
2023-04-01T16:10:57.427Z,98990.03
2023-04-01T16:13:49.231Z,98991.78
2023-04-01T16:17:02.362Z,99006.22
2023-04-01T16:19:52.673Z,99009.09
2023-04-01T16:22:42.035Z,99014.63
2023-04-01T16:25:41.022Z,99014.78
2023-04-01T16:28:40.023Z,99016.66
2023-04-01T16:31:39.564Z,98971.16
2023-04-01T16:34:59.622Z,99036.69
2023-04-01T16:38:00.439Z,99013.00
2023-04-01T16:40:54.505Z,99056.19
2023-04-01T16:43:52.842Z,99052.47
2023-04-01T16:46:45.539Z,99057.97
2023-04-01T16:49:43.754Z,99062.63
2023-04-01T16:52:51.415Z,99077.03
2023-04-01T16:55:54.287Z,99086.16
2023-04-01T16:58:59.062Z,99081.94
2023-04-01T17:01:53.696Z,99092.34
2023-04-01T17:04:49.053Z,99054.78
2023-04-01T17:08:02.775Z,99100.25
2023-04-01T17:10:55.019Z,99094.97
2023-04-01T17:14:18.414Z,99078.50
2023-04-01T17:17:16.490Z,99107.38
2023-04-01T17:20:10.157Z,99114.97
2023-04-01T17:23:15.658Z,99119.88
2023-04-01T17:26:08.075Z,99063.34
2023-04-01T17:29:31.930Z,99129.25
2023-04-01T17:32:59.707Z,99136.41
2023-04-01T17:35:56.013Z,99149.81
2023-04-01T17:39:10.014Z,99141.34
2023-04-01T17:42:16.827Z,99098.91
2023-04-01T17:45:06.885Z,99095.69
2023-04-01T17:48:08.019Z,99166.25
2023-04-01T17:51:16.081Z,99172.09
2023-04-01T17:54:24.024Z,99179.34
2023-04-01T17:57:13.025Z,99123.19
2023-04-01T17:59:58.753Z,99191.06
2023-04-01T18:03:16.053Z,99190.72
2023-04-01T18:06:08.853Z,99206.53
2023-04-01T18:09:03.975Z,99204.84
2023-04-01T18:12:08.525Z,99202.72
2023-04-01T18:15:13.479Z,99214.59
2023-04-01T18:18:26.185Z,99216.59
2023-04-01T18:21:33.579Z,99221.84
2023-04-01T18:24:21.288Z,99170.94
2023-04-01T18:27:17.495Z,99228.56
2023-04-01T18:30:18.664Z,99201.25
2023-04-01T18:33:26.656Z,99130.88
2023-04-01T18:36:25.808Z,99249.16
2023-04-01T18:43:46.614Z,99239.09
2023-04-01T18:46:41.120Z,99266.59
2023-04-01T18:49:35.019Z,99276.44
2023-04-01T18:59:44.503Z,99250.88
2023-04-01T19:02:48.252Z,99255.25
2023-04-01T19:05:39.165Z,99284.66
2023-04-01T19:08:44.668Z,99184.47
